createdAt,value
2019-03-19T00:01:17.476Z,31.33
2019-03-19T00:03:47.440Z,27.67
2019-03-19T00:06:17.380Z,29.00
2019-03-19T00:08:47.299Z,27.98
2019-03-19T00:11:17.249Z,27.95
2019-03-19T00:13:47.516Z,28.70
2019-03-19T00:16:17.480Z,26.20
2019-03-19T00:18:47.552Z,27.77
2019-03-19T00:21:17.495Z,26.45
2019-03-19T00:23:47.431Z,25.92
2019-03-19T00:26:17.352Z,27.20
2019-03-19T00:28:47.739Z,27.40
2019-03-19T00:31:17.726Z,24.95
2019-03-19T00:33:47.676Z,26.33
2019-03-19T00:36:17.734Z,27.13
2019-03-19T00:38:48.801Z,23.25
2019-03-19T00:41:18.745Z,27.00
2019-03-19T00:43:49.636Z,27.70
2019-03-19T00:46:19.593Z,27.90
2019-03-19T00:48:49.545Z,28.83
2019-03-19T00:51:20.649Z,29.02
2019-03-19T00:53:52.317Z,28.98
2019-03-19T00:56:22.342Z,26.05
2019-03-19T00:58:53.128Z,28.57
2019-03-19T01:01:23.345Z,26.25
2019-03-19T01:03:53.302Z,25.40
2019-03-19T01:06:23.292Z,27.00
2019-03-19T01:08:53.293Z,26.27
2019-03-19T01:11:23.207Z,26.60
2019-03-19T01:13:54.220Z,26.73
2019-03-19T01:16:24.134Z,26.07
2019-03-19T01:18:54.071Z,25.57
2019-03-19T01:21:24.054Z,26.12
2019-03-19T01:23:54.150Z,25.95
2019-03-19T01:26:24.179Z,25.62
2019-03-19T01:28:54.119Z,24.72
2019-03-19T01:31:24.076Z,25.75
2019-03-19T01:33:54.090Z,25.77
2019-03-19T01:36:24.107Z,24.12
2019-03-19T01:38:54.059Z,25.35
2019-03-19T01:41:23.964Z,25.32
2019-03-19T01:43:53.930Z,26.33
2019-03-19T01:46:23.944Z,23.45
2019-03-19T01:48:53.907Z,23.52
2019-03-19T01:51:24.142Z,23.42
2019-03-19T01:53:54.067Z,25.08
2019-03-19T01:56:24.038Z,22.48
2019-03-19T01:58:54.068Z,23.02
2019-03-19T02:01:24.904Z,22.40
2019-03-19T02:03:54.875Z,21.62
2019-03-19T02:06:24.925Z,23.20
2019-03-19T02:08:57.881Z,21.10
2019-03-19T02:11:27.913Z,21.80
2019-03-19T02:13:57.568Z,21.73
2019-03-19T02:16:27.623Z,20.82
2019-03-19T02:18:57.740Z,20.82
2019-03-19T02:21:27.448Z,19.57
2019-03-19T02:23:57.483Z,20.90
2019-03-19T02:26:27.588Z,20.60
2019-03-19T02:28:57.545Z,22.05
2019-03-19T02:31:27.143Z,20.62
2019-03-19T02:33:57.041Z,20.97
2019-03-19T02:36:27.071Z,20.10
2019-03-19T02:38:57.023Z,21.62
2019-03-19T02:41:27.014Z,22.50
2019-03-19T02:43:56.969Z,21.20
2019-03-19T02:46:26.979Z,20.88
2019-03-19T02:48:56.960Z,19.77
2019-03-19T02:51:26.925Z,20.52
2019-03-19T02:53:56.964Z,19.17
2019-03-19T02:56:33.330Z,20.08
2019-03-19T02:58:58.445Z,19.27
2019-03-19T03:01:29.247Z,20.80
2019-03-19T03:03:59.261Z,21.33
2019-03-19T03:06:29.290Z,20.15
2019-03-19T03:08:58.983Z,20.77
2019-03-19T03:11:28.918Z,19.40
2019-03-19T03:13:59.064Z,19.10
2019-03-19T03:16:28.991Z,20.40
2019-03-19T03:18:58.950Z,18.30
2019-03-19T03:21:28.903Z,22.45
2019-03-19T03:23:58.560Z,22.85
2019-03-19T03:26:28.106Z,21.42
2019-03-19T03:28:58.422Z,23.73
2019-03-19T03:31:39.659Z,24.55
2019-03-19T03:34:09.756Z,25.08
2019-03-19T03:36:39.884Z,26.27
2019-03-19T03:39:09.520Z,20.80
2019-03-19T03:41:39.879Z,22.65
2019-03-19T03:44:09.903Z,17.70
2019-03-19T03:46:39.621Z,19.05
2019-03-19T03:49:09.175Z,18.67
2019-03-19T03:51:39.133Z,17.00
2019-03-19T03:54:09.127Z,14.73
2019-03-19T03:56:39.081Z,17.17
2019-03-19T03:59:09.030Z,16.82
2019-03-19T04:01:40.003Z,15.08
2019-03-19T04:04:10.028Z,14.50
2019-03-19T04:06:40.188Z,14.15
2019-03-19T04:09:09.779Z,9.05
2019-03-19T04:11:39.350Z,11.05
2019-03-19T04:14:09.237Z,13.90
2019-03-19T04:16:39.186Z,12.15
2019-03-19T04:19:09.115Z,12.82
2019-03-19T04:21:39.248Z,10.35
2019-03-19T04:24:10.229Z,13.03
2019-03-19T04:26:40.347Z,11.38
2019-03-19T04:29:10.376Z,12.55
2019-03-19T04:31:40.333Z,10.60
2019-03-19T04:34:10.338Z,12.43
2019-03-19T04:36:40.303Z,12.25
2019-03-19T04:39:10.322Z,12.95
2019-03-19T04:41:40.334Z,13.50
2019-03-19T04:44:10.311Z,12.93
2019-03-19T04:46:40.327Z,12.53
2019-03-19T04:49:09.921Z,12.35
2019-03-19T04:51:40.781Z,12.50
2019-03-19T04:54:10.709Z,9.80
2019-03-19T04:56:40.341Z,8.38
2019-03-19T04:59:10.250Z,13.32
2019-03-19T05:01:39.760Z,13.68
2019-03-19T05:04:10.381Z,13.98
2019-03-19T05:06:40.336Z,11.97
2019-03-19T05:09:09.932Z,10.10
2019-03-19T05:11:39.469Z,13.50
2019-03-19T05:14:09.411Z,13.78
2019-03-19T05:16:39.362Z,15.50
2019-03-19T05:19:09.288Z,14.55
2019-03-19T05:21:39.265Z,14.43
2019-03-19T05:24:09.424Z,14.10
2019-03-19T05:26:39.379Z,14.30
2019-03-19T05:29:09.419Z,16.30
2019-03-19T05:31:39.369Z,16.07
2019-03-19T05:34:09.048Z,15.85
2019-03-19T05:36:38.891Z,14.33
2019-03-19T05:39:08.576Z,16.30
2019-03-19T05:41:38.526Z,14.33
2019-03-19T05:44:09.602Z,14.73
2019-03-19T05:46:39.556Z,15.23
2019-03-19T05:49:09.647Z,16.37
2019-03-19T05:51:39.599Z,11.85
2019-03-19T05:54:09.750Z,8.98
2019-03-19T05:56:40.247Z,15.95
2019-03-19T05:59:10.403Z,10.05
2019-03-19T06:01:40.104Z,14.50
2019-03-19T06:04:10.112Z,14.78
2019-03-19T06:06:40.040Z,13.98
2019-03-19T06:09:09.680Z,17.50
2019-03-19T06:11:39.195Z,16.73
2019-03-19T06:14:09.068Z,14.83
2019-03-19T06:16:38.702Z,14.78
2019-03-19T06:19:08.221Z,15.45
2019-03-19T06:21:37.884Z,11.38
2019-03-19T06:24:07.756Z,14.73
2019-03-19T06:26:37.750Z,14.47
2019-03-19T06:29:07.366Z,15.38
2019-03-19T06:31:36.915Z,11.70
2019-03-19T06:34:06.747Z,12.68
2019-03-19T06:36:36.392Z,13.93
2019-03-19T06:39:07.902Z,10.98
2019-03-19T06:41:37.840Z,14.90
2019-03-19T06:44:07.431Z,11.35
2019-03-19T06:46:37.295Z,13.95
2019-03-19T06:49:07.243Z,14.58
2019-03-19T06:51:38.237Z,12.95
2019-03-19T06:54:08.160Z,13.10
2019-03-19T06:56:39.016Z,11.45
2019-03-19T06:59:09.048Z,11.08
2019-03-19T07:01:38.785Z,12.88
2019-03-19T07:04:08.754Z,8.78
2019-03-19T07:06:39.254Z,14.73
2019-03-19T07:09:08.825Z,15.63
2019-03-19T07:11:38.360Z,13.32
2019-03-19T07:14:10.818Z,10.90
2019-03-19T07:16:40.649Z,13.68
2019-03-19T07:19:10.596Z,14.25
2019-03-19T07:21:40.574Z,15.40
2019-03-19T07:24:10.505Z,14.63
2019-03-19T07:26:40.526Z,14.73
2019-03-19T07:29:10.144Z,13.25
2019-03-19T07:31:40.031Z,11.95
2019-03-19T07:34:09.663Z,11.95
2019-03-19T07:36:39.550Z,12.68
2019-03-19T07:39:09.157Z,12.25
2019-03-19T07:41:39.138Z,11.73
2019-03-19T07:44:09.144Z,10.70
2019-03-19T07:46:38.744Z,10.35
2019-03-19T07:49:08.651Z,11.38
2019-03-19T07:51:38.675Z,10.50
2019-03-19T07:54:08.723Z,9.65
2019-03-19T07:56:38.734Z,10.63
2019-03-19T07:59:08.719Z,10.20
2019-03-19T08:01:38.743Z,11.63
2019-03-19T08:04:08.878Z,11.05
2019-03-19T08:06:39.048Z,9.80
2019-03-19T08:09:09.843Z,9.90
2019-03-19T08:11:39.780Z,9.00
2019-03-19T08:14:09.733Z,9.50
2019-03-19T08:16:42.722Z,9.13
2019-03-19T08:19:12.636Z,8.80
2019-03-19T08:21:42.865Z,9.20
2019-03-19T08:24:12.779Z,8.78
2019-03-19T08:26:43.189Z,8.15
2019-03-19T08:29:13.163Z,8.35
2019-03-19T08:31:43.111Z,8.53
2019-03-19T08:34:12.691Z,8.80
2019-03-19T08:36:42.274Z,7.80
2019-03-19T08:39:12.182Z,7.03
2019-03-19T08:41:42.256Z,7.37
2019-03-19T08:44:12.020Z,9.13
2019-03-19T08:46:41.731Z,9.08
2019-03-19T08:49:11.642Z,9.00
2019-03-19T08:51:41.659Z,8.20
2019-03-19T08:54:11.580Z,8.05
2019-03-19T08:56:41.530Z,7.20
2019-03-19T08:59:11.459Z,7.80
2019-03-19T09:01:41.037Z,8.73
2019-03-19T09:04:29.871Z,7.70
2019-03-19T09:06:59.750Z,8.63
2019-03-19T09:09:30.667Z,8.00
2019-03-19T09:12:00.577Z,8.33
2019-03-19T09:14:30.191Z,7.47
2019-03-19T09:17:00.019Z,7.28
2019-03-19T09:19:29.973Z,7.90
2019-03-19T09:21:59.592Z,7.50
2019-03-19T09:24:29.437Z,6.15
2019-03-19T09:26:59.464Z,6.05
2019-03-19T09:29:29.076Z,6.33
2019-03-19T09:31:58.933Z,6.08
2019-03-19T09:34:29.166Z,6.28
2019-03-19T09:36:59.182Z,6.00
2019-03-19T09:39:29.451Z,6.15
2019-03-19T09:41:59.375Z,5.83
2019-03-19T09:44:29.315Z,6.50
2019-03-19T09:46:59.297Z,6.47
2019-03-19T09:49:29.126Z,7.40
2019-03-19T09:51:59.244Z,7.58
2019-03-19T09:54:29.207Z,7.05
2019-03-19T09:56:59.123Z,7.15
2019-03-19T09:59:28.763Z,6.42
2019-03-19T10:01:58.392Z,6.47
2019-03-19T10:04:28.383Z,6.50
2019-03-19T10:07:05.698Z,6.10
2019-03-19T10:09:29.238Z,4.33
2019-03-19T10:11:58.794Z,5.40
2019-03-19T10:14:28.647Z,5.78
2019-03-19T10:16:58.591Z,6.55
2019-03-19T10:19:28.741Z,6.75
2019-03-19T10:21:58.744Z,5.00
2019-03-19T10:24:28.691Z,5.67
2019-03-19T10:26:58.760Z,5.78
2019-03-19T10:29:37.866Z,5.03
2019-03-19T10:32:00.361Z,4.62
2019-03-19T10:34:30.397Z,4.70
2019-03-19T10:37:00.371Z,4.67
2019-03-19T10:39:31.644Z,3.80
2019-03-19T10:42:01.593Z,3.87
2019-03-19T10:44:31.639Z,4.50
2019-03-19T10:47:01.654Z,4.42
2019-03-19T10:49:31.591Z,4.37
2019-03-19T10:52:01.621Z,4.87
2019-03-19T10:54:32.703Z,3.70
2019-03-19T10:57:02.690Z,3.80
2019-03-19T10:59:32.959Z,2.45
2019-03-19T11:02:02.911Z,3.75
2019-03-19T11:04:32.536Z,3.80
2019-03-19T11:07:02.364Z,3.40
2019-03-19T11:09:32.595Z,3.95
2019-03-19T11:12:02.664Z,3.75
2019-03-19T11:14:32.719Z,3.95
2019-03-19T11:17:02.655Z,3.95
2019-03-19T11:19:32.583Z,4.35
2019-03-19T11:22:02.528Z,3.77
2019-03-19T11:24:32.487Z,3.60
2019-03-19T11:27:02.173Z,4.45
2019-03-19T11:29:32.102Z,3.83
2019-03-19T11:32:01.716Z,3.47
2019-03-19T11:34:31.578Z,3.42
2019-03-19T11:37:01.510Z,3.90
2019-03-19T11:39:31.466Z,4.22
2019-03-19T11:42:01.521Z,3.87
2019-03-19T11:44:31.547Z,4.62
2019-03-19T11:47:01.489Z,4.00
2019-03-19T11:49:31.433Z,4.05
2019-03-19T11:52:01.433Z,4.25
2019-03-19T11:54:31.414Z,3.75
2019-03-19T11:57:01.798Z,3.80
2019-03-19T11:59:31.803Z,3.72
2019-03-19T12:02:01.732Z,3.77
2019-03-19T12:04:31.718Z,3.70
2019-03-19T12:07:01.664Z,4.00
2019-03-19T12:09:31.616Z,3.62
2019-03-19T12:12:02.417Z,3.75
2019-03-19T12:14:32.362Z,4.25
2019-03-19T12:17:02.294Z,4.33
2019-03-19T12:19:32.262Z,4.30
2019-03-19T12:22:02.289Z,4.20
2019-03-19T12:24:32.842Z,4.00
2019-03-19T12:27:02.967Z,4.10
2019-03-19T12:29:32.912Z,4.97
2019-03-19T12:32:02.844Z,4.70
2019-03-19T12:34:33.069Z,4.60
2019-03-19T12:37:03.074Z,4.12
2019-03-19T12:39:33.044Z,4.12
2019-03-19T12:42:03.104Z,4.87
2019-03-19T12:44:33.120Z,4.60
2019-03-19T12:47:03.065Z,4.53
2019-03-19T12:49:33.272Z,4.50
2019-03-19T12:52:03.561Z,4.47
2019-03-19T12:54:33.586Z,4.42
2019-03-19T12:57:03.932Z,4.30
2019-03-19T12:59:33.924Z,4.28
2019-03-19T13:02:03.880Z,4.42
2019-03-19T13:04:33.598Z,4.58
2019-03-19T13:07:03.439Z,4.78
2019-03-19T13:09:33.374Z,4.17
2019-03-19T13:12:03.335Z,4.90
2019-03-19T13:14:34.131Z,4.70
2019-03-19T13:17:04.168Z,4.53
2019-03-19T13:19:34.091Z,4.80
2019-03-19T13:22:04.202Z,3.92
2019-03-19T13:24:34.184Z,5.30
2019-03-19T13:27:04.192Z,4.20
2019-03-19T13:29:34.156Z,4.03
2019-03-19T13:32:04.089Z,3.92
2019-03-19T13:34:34.161Z,4.35
2019-03-19T13:37:04.133Z,4.12
2019-03-19T13:39:34.123Z,4.20
2019-03-19T13:42:04.300Z,4.12
2019-03-19T13:44:34.253Z,4.30
2019-03-19T13:47:04.181Z,3.58
2019-03-19T13:49:34.330Z,3.65
2019-03-19T13:52:04.095Z,3.22
2019-03-19T13:54:33.614Z,3.33
2019-03-19T13:57:03.469Z,4.33
2019-03-19T13:59:35.934Z,3.27
2019-03-19T14:02:04.830Z,3.30
2019-03-19T14:04:34.408Z,3.40
2019-03-19T14:07:04.315Z,3.40
2019-03-19T14:09:34.255Z,4.15
2019-03-19T14:12:04.191Z,3.95
2019-03-19T14:14:34.142Z,3.75
2019-03-19T14:17:06.510Z,3.70
2019-03-19T14:19:35.786Z,3.40
2019-03-19T14:22:05.726Z,3.30
2019-03-19T14:24:35.742Z,4.00
2019-03-19T14:27:05.863Z,4.03
2019-03-19T14:29:35.823Z,3.72
2019-03-19T14:32:05.970Z,3.30
2019-03-19T14:34:35.956Z,3.33
2019-03-19T14:37:05.987Z,3.80
2019-03-19T14:39:37.016Z,3.83
2019-03-19T14:42:06.927Z,3.55
2019-03-19T14:44:36.848Z,3.22
2019-03-19T14:47:06.856Z,3.62
2019-03-19T14:49:46.256Z,3.87
2019-03-19T14:52:08.527Z,3.55
2019-03-19T14:54:38.614Z,3.08
2019-03-19T14:57:08.605Z,3.87
2019-03-19T14:59:38.826Z,3.55
2019-03-19T15:02:08.920Z,3.70
2019-03-19T15:04:38.992Z,3.70
2019-03-19T15:07:08.957Z,3.47
2019-03-19T15:09:39.948Z,3.47
2019-03-19T15:12:12.526Z,3.20
2019-03-19T15:14:42.759Z,3.77
2019-03-19T15:17:13.447Z,3.45
2019-03-19T15:19:43.395Z,4.30
2019-03-19T15:22:13.329Z,3.15
2019-03-19T15:24:43.245Z,3.42
2019-03-19T15:27:13.194Z,4.37
2019-03-19T15:29:43.119Z,4.30
2019-03-19T15:32:13.081Z,4.42
2019-03-19T15:34:44.172Z,4.62
2019-03-19T15:37:14.195Z,4.37
2019-03-19T15:39:45.204Z,4.42
2019-03-19T15:42:14.819Z,4.78
2019-03-19T15:44:44.664Z,4.35
2019-03-19T15:47:14.599Z,4.40
2019-03-19T15:49:44.571Z,4.37
2019-03-19T15:52:14.899Z,4.72
2019-03-19T15:54:44.853Z,4.62
2019-03-19T15:57:14.773Z,4.53
2019-03-19T15:59:44.707Z,5.37
2019-03-19T16:02:14.667Z,5.45
2019-03-19T16:04:44.617Z,5.40
2019-03-19T16:07:14.666Z,5.15
2019-03-19T16:09:44.730Z,4.05
2019-03-19T16:12:14.750Z,4.20
2019-03-19T16:14:44.778Z,4.47
2019-03-19T16:17:14.821Z,4.08
2019-03-19T16:19:44.838Z,4.10
2019-03-19T16:22:14.774Z,28.77
2019-03-19T16:24:44.704Z,4.05
2019-03-19T16:27:14.720Z,3.80
2019-03-19T16:29:44.878Z,3.85
2019-03-19T16:32:14.892Z,4.37
2019-03-19T16:34:44.832Z,3.98
2019-03-19T16:37:14.827Z,4.00
2019-03-19T16:39:44.787Z,3.55
2019-03-19T16:42:14.864Z,4.05
2019-03-19T16:44:44.829Z,3.90
2019-03-19T16:47:15.193Z,4.10
2019-03-19T16:49:45.127Z,4.53
2019-03-19T16:52:15.493Z,5.00
2019-03-19T16:54:45.494Z,4.60
2019-03-19T16:57:15.441Z,4.75
2019-03-19T16:59:45.403Z,6.58
2019-03-19T17:02:15.348Z,13.93
2019-03-19T17:04:45.295Z,7.60
2019-03-19T17:07:15.264Z,6.10
2019-03-19T17:09:45.220Z,6.00
2019-03-19T17:12:15.147Z,5.72
2019-03-19T17:14:45.137Z,6.00
2019-03-19T17:17:15.142Z,7.15
2019-03-19T17:19:45.174Z,9.23
2019-03-19T17:22:15.224Z,10.40
2019-03-19T17:24:45.259Z,9.33
2019-03-19T17:27:19.420Z,10.25
2019-03-19T17:29:49.692Z,10.40
2019-03-19T17:32:19.784Z,11.20
2019-03-19T17:34:51.385Z,10.48
2019-03-19T17:37:22.463Z,11.88
2019-03-19T17:39:52.405Z,12.33
2019-03-19T17:42:23.365Z,12.03
2019-03-19T17:44:53.313Z,12.65
2019-03-19T17:47:23.539Z,12.53
2019-03-19T17:49:54.339Z,12.07
2019-03-19T17:52:24.269Z,12.50
2019-03-19T17:54:54.520Z,13.05
2019-03-19T17:57:25.776Z,12.53
2019-03-19T17:59:55.649Z,14.15
2019-03-19T18:02:25.826Z,13.95
2019-03-19T18:04:57.012Z,14.47
2019-03-19T18:07:27.012Z,13.90
2019-03-19T18:09:56.942Z,14.98
2019-03-19T18:12:26.975Z,15.30
2019-03-19T18:14:56.926Z,16.25
2019-03-19T18:17:27.008Z,16.02
2019-03-19T18:19:58.008Z,16.20
2019-03-19T18:22:27.961Z,19.52
2019-03-19T18:24:58.155Z,23.92
2019-03-19T18:27:28.090Z,22.35
2019-03-19T18:29:58.212Z,21.48
2019-03-19T18:32:34.935Z,21.27
2019-03-19T18:35:07.066Z,19.82
2019-03-19T18:37:40.305Z,20.05
2019-03-19T18:40:12.104Z,21.37
2019-03-19T18:42:42.273Z,20.77
2019-03-19T18:45:12.878Z,20.50
2019-03-19T18:47:42.853Z,23.18
2019-03-19T18:50:18.395Z,22.80
2019-03-19T18:52:51.230Z,21.68
2019-03-19T18:55:21.417Z,22.05
2019-03-19T18:57:54.316Z,23.77
2019-03-19T19:00:24.762Z,22.02
2019-03-19T19:02:54.878Z,23.70
2019-03-19T19:05:25.061Z,25.55
2019-03-19T19:07:55.328Z,26.42
2019-03-19T19:10:25.403Z,26.77
2019-03-19T19:12:55.347Z,34.92
2019-03-19T19:15:25.857Z,39.70
2019-03-19T19:17:56.064Z,38.17
2019-03-19T19:20:26.940Z,38.17
2019-03-19T19:22:57.275Z,37.23
2019-03-19T19:25:27.564Z,37.73
2019-03-19T19:27:57.565Z,41.53
2019-03-19T19:30:29.482Z,45.23
2019-03-19T19:33:01.895Z,53.68
2019-03-19T19:35:31.683Z,49.85
2019-03-19T19:38:03.481Z,46.25
2019-03-19T19:40:34.044Z,43.75
2019-03-19T19:43:03.974Z,44.00
2019-03-19T19:45:34.247Z,42.20
2019-03-19T19:48:04.189Z,42.27
2019-03-19T19:50:34.133Z,50.90
2019-03-19T19:53:04.240Z,55.28
2019-03-19T19:55:34.671Z,59.38
2019-03-19T19:58:06.443Z,61.02
2019-03-19T20:00:36.623Z,60.80
2019-03-19T20:03:12.331Z,57.78
2019-03-19T20:05:38.195Z,54.63
2019-03-19T20:08:08.137Z,55.15
2019-03-19T20:10:38.243Z,54.58
2019-03-19T20:13:08.422Z,53.95
2019-03-19T20:15:38.965Z,53.30
2019-03-19T20:18:09.019Z,53.42
2019-03-19T20:20:39.892Z,53.50
2019-03-19T20:23:09.867Z,53.35
2019-03-19T20:25:39.874Z,55.43
2019-03-19T20:28:09.888Z,54.73
2019-03-19T20:30:39.861Z,57.05
2019-03-19T20:33:10.009Z,57.25
2019-03-19T20:35:40.204Z,57.95
2019-03-19T20:38:10.512Z,57.78
2019-03-19T20:40:40.523Z,57.78
2019-03-19T20:43:10.571Z,61.50
2019-03-19T20:45:40.605Z,63.85
2019-03-19T20:48:10.595Z,61.77
2019-03-19T20:50:43.563Z,65.45
2019-03-19T20:53:13.857Z,63.52
2019-03-19T20:55:43.973Z,61.60
2019-03-19T20:58:14.103Z,62.93
2019-03-19T21:00:44.414Z,66.53
2019-03-19T21:03:14.494Z,64.15
2019-03-19T21:05:44.719Z,63.45
2019-03-19T21:08:14.707Z,61.53
2019-03-19T21:10:44.777Z,62.93
2019-03-19T21:13:14.810Z,65.03
2019-03-19T21:15:44.774Z,66.90
2019-03-19T21:18:14.748Z,67.78
2019-03-19T21:20:44.900Z,69.67
2019-03-19T21:23:14.941Z,68.75
2019-03-19T21:25:45.532Z,67.25
2019-03-19T21:28:15.513Z,67.95
2019-03-19T21:30:45.632Z,67.82
2019-03-19T21:33:15.578Z,67.15
2019-03-19T21:35:45.518Z,67.65
2019-03-19T21:38:15.581Z,70.40
2019-03-19T21:40:45.772Z,73.22
2019-03-19T21:43:15.860Z,74.47
2019-03-19T21:45:46.057Z,71.00
2019-03-19T21:48:16.289Z,70.57
2019-03-19T21:50:46.273Z,72.65
2019-03-19T21:53:16.241Z,73.95
2019-03-19T21:55:46.382Z,74.12
2019-03-19T21:58:16.679Z,73.10
2019-03-19T22:00:46.717Z,74.50
2019-03-19T22:03:18.320Z,75.17
2019-03-19T22:05:59.492Z,77.45
2019-03-19T22:08:29.804Z,76.95
2019-03-19T22:11:02.753Z,76.57
2019-03-19T22:13:32.733Z,81.12
2019-03-19T22:16:04.347Z,79.17
2019-03-19T22:18:34.366Z,79.32
2019-03-19T22:21:05.144Z,77.35
2019-03-19T22:23:35.195Z,79.82
2019-03-19T22:26:05.241Z,78.22
2019-03-19T22:28:35.200Z,81.40
2019-03-19T22:31:05.303Z,81.30
2019-03-19T22:33:35.668Z,79.32
2019-03-19T22:36:06.063Z,74.27
2019-03-19T22:38:36.131Z,72.80
2019-03-19T22:41:06.190Z,73.87
2019-03-19T22:43:36.162Z,76.65
2019-03-19T22:46:06.467Z,68.78
2019-03-19T22:48:36.598Z,61.85
2019-03-19T22:51:06.533Z,75.47
2019-03-19T22:53:36.518Z,73.95
2019-03-19T22:56:06.764Z,76.02
2019-03-19T22:58:36.736Z,75.78
2019-03-19T23:01:07.054Z,72.25
2019-03-19T23:03:38.894Z,73.15
2019-03-19T23:06:08.918Z,71.40
2019-03-19T23:08:39.098Z,71.55
2019-03-19T23:11:09.176Z,69.75
2019-03-19T23:13:39.175Z,68.05
2019-03-19T23:16:09.153Z,69.65
2019-03-19T23:18:39.121Z,67.92
2019-03-19T23:21:10.165Z,70.90
2019-03-19T23:23:40.210Z,71.28
2019-03-19T23:26:13.885Z,66.97
2019-03-19T23:28:44.128Z,64.35
2019-03-19T23:31:14.155Z,50.48
2019-03-19T23:33:44.234Z,44.35
2019-03-19T23:36:14.515Z,45.92
2019-03-19T23:38:44.707Z,68.25
2019-03-19T23:41:20.392Z,45.03
2019-03-19T23:43:50.614Z,43.98
2019-03-19T23:46:20.564Z,42.48
2019-03-19T23:48:50.502Z,40.63
2019-03-19T23:51:20.539Z,42.23
2019-03-19T23:53:50.539Z,42.00
2019-03-19T23:56:20.596Z,39.00
2019-03-19T23:58:50.601Z,41.33
